createdAt,value
2022-12-12T00:01:37.471Z,-3.71
2022-12-12T00:04:06.036Z,-3.45
2022-12-12T00:06:33.975Z,-3.66
2022-12-12T00:09:01.909Z,-3.33
2022-12-12T00:11:30.282Z,-3.30
2022-12-12T00:13:58.450Z,-3.29
2022-12-12T00:16:29.268Z,-3.54
2022-12-12T00:19:00.391Z,-3.51
2022-12-12T00:21:30.544Z,-3.25
2022-12-12T00:23:59.329Z,-3.48
2022-12-12T00:26:31.419Z,-3.34
2022-12-12T00:29:01.264Z,-3.32
2022-12-12T00:31:29.535Z,-3.27
2022-12-12T00:33:58.327Z,-3.53
2022-12-12T00:36:29.879Z,-3.35
2022-12-12T00:38:59.300Z,-3.33
2022-12-12T00:41:28.334Z,-3.49
2022-12-12T00:43:56.710Z,-3.34
2022-12-12T00:46:26.266Z,-3.54
2022-12-12T00:48:57.312Z,-3.71
2022-12-12T00:51:27.948Z,-3.28
2022-12-12T00:53:59.425Z,-3.37
2022-12-12T00:56:29.199Z,-3.45
2022-12-12T00:58:57.383Z,-3.46
2022-12-12T01:01:29.516Z,-3.47
2022-12-12T01:03:59.475Z,-3.41
2022-12-12T01:06:28.309Z,-3.52
2022-12-12T01:08:56.760Z,-3.70
2022-12-12T01:11:25.661Z,-3.43
2022-12-12T01:13:57.589Z,-3.42
2022-12-12T01:16:26.590Z,-3.69
2022-12-12T01:18:54.422Z,-3.52
2022-12-12T01:21:22.434Z,-3.45
2022-12-12T01:23:50.776Z,-3.46
2022-12-12T01:26:22.383Z,-3.50
2022-12-12T01:28:51.622Z,-3.48
2022-12-12T01:31:20.235Z,-3.69
2022-12-12T01:33:48.512Z,-3.46
2022-12-12T01:36:19.359Z,-3.45
2022-12-12T01:38:50.231Z,-3.44
2022-12-12T01:41:19.501Z,-3.40
2022-12-12T01:43:47.899Z,-3.44
2022-12-12T01:46:43.579Z,-3.48
2022-12-12T01:49:26.295Z,-3.44
2022-12-12T01:52:00.853Z,-3.46
2022-12-12T01:54:36.599Z,-3.76
2022-12-12T01:57:13.773Z,-3.43
2022-12-12T01:59:42.507Z,-3.77
2022-12-12T02:02:10.620Z,-3.71
2022-12-12T02:04:38.925Z,-3.53
2022-12-12T02:07:08.250Z,-3.61
2022-12-12T02:09:38.246Z,-3.78
2022-12-12T02:12:06.746Z,-3.78
2022-12-12T02:14:40.696Z,-3.92
2022-12-12T02:17:29.922Z,-3.85
2022-12-12T02:20:40.764Z,-3.59
2022-12-12T02:23:19.333Z,-3.60
2022-12-12T02:25:52.935Z,-3.63
2022-12-12T02:28:49.781Z,-3.60
2022-12-12T02:31:56.109Z,-3.53
2022-12-12T02:34:47.331Z,-3.49
2022-12-12T02:37:50.212Z,-3.47
2022-12-12T02:40:46.437Z,-3.54
2022-12-12T02:43:40.071Z,-3.80
2022-12-12T02:46:32.349Z,-3.78
2022-12-12T02:49:08.771Z,-3.61
2022-12-12T02:51:38.726Z,-3.58
2022-12-12T02:54:17.108Z,-3.77
2022-12-12T02:57:00.687Z,-3.72
2022-12-12T02:59:37.013Z,-3.95
2022-12-12T03:02:43.015Z,-3.70
2022-12-12T03:05:47.793Z,-3.74
2022-12-12T03:08:49.182Z,-3.66
2022-12-12T03:11:52.808Z,-3.70
2022-12-12T03:14:57.219Z,-3.70
2022-12-12T03:17:50.085Z,-3.95
2022-12-12T03:20:40.484Z,-3.71
2022-12-12T03:23:18.470Z,-3.66
2022-12-12T03:26:06.093Z,-3.73
2022-12-12T03:29:20.092Z,-3.68
2022-12-12T03:31:56.520Z,-3.83
2022-12-12T03:34:58.947Z,-3.87
2022-12-12T03:37:35.940Z,-3.80
2022-12-12T03:40:15.598Z,-3.87
2022-12-12T03:43:10.997Z,-3.68
2022-12-12T03:46:14.106Z,-3.81
2022-12-12T03:48:57.176Z,-3.87
2022-12-12T03:51:31.718Z,-3.89
2022-12-12T03:54:07.319Z,-3.72
2022-12-12T03:57:18.018Z,-3.74
2022-12-12T04:00:02.235Z,-3.76
2022-12-12T04:02:52.201Z,-3.75
2022-12-12T04:06:10.676Z,-3.78
2022-12-12T04:08:39.468Z,-3.81
2022-12-12T04:11:39.213Z,-3.78
2022-12-12T04:15:03.613Z,-3.73
2022-12-12T04:18:18.193Z,-3.84
2022-12-12T04:21:44.017Z,-4.01
2022-12-12T04:24:37.902Z,-3.78
2022-12-12T04:27:22.695Z,-3.76
2022-12-12T04:30:08.873Z,-4.00
2022-12-12T04:32:50.368Z,-3.79
2022-12-12T04:35:46.335Z,-3.85
2022-12-12T04:38:21.976Z,-3.89
2022-12-12T04:40:58.282Z,-3.86
2022-12-12T04:43:34.715Z,-3.84
2022-12-12T04:46:18.954Z,-3.86
2022-12-12T04:48:56.661Z,-3.86
2022-12-12T04:51:31.998Z,-4.00
2022-12-12T04:54:30.961Z,-3.86
2022-12-12T04:57:05.252Z,-3.84
2022-12-12T04:59:33.525Z,-3.81
2022-12-12T05:02:26.636Z,-3.86
2022-12-12T05:04:59.147Z,-3.83
2022-12-12T05:07:44.203Z,-4.31
2022-12-12T05:10:16.641Z,-3.87
2022-12-12T05:12:51.154Z,-3.86
2022-12-12T05:15:20.767Z,-4.10
2022-12-12T05:18:01.536Z,-3.84
2022-12-12T05:20:29.870Z,-3.82
2022-12-12T05:22:57.910Z,-3.83
2022-12-12T05:25:26.041Z,-3.98
2022-12-12T05:27:53.985Z,-3.87
2022-12-12T05:30:22.475Z,-4.12
2022-12-12T05:32:51.449Z,-3.75
2022-12-12T05:35:19.434Z,-3.82
2022-12-12T05:37:51.725Z,-4.23
2022-12-12T05:40:21.719Z,-3.84
2022-12-12T05:42:49.700Z,-3.78
2022-12-12T05:45:17.603Z,-3.85
2022-12-12T05:47:45.532Z,-3.75
2022-12-12T05:50:14.222Z,-4.00
2022-12-12T05:52:42.043Z,-4.07
2022-12-12T05:55:10.327Z,-3.75
2022-12-12T05:57:38.682Z,-3.98
2022-12-12T06:00:09.012Z,-3.79
2022-12-12T06:02:37.162Z,-3.69
2022-12-12T06:05:05.780Z,-3.75
2022-12-12T06:07:33.636Z,-4.01
2022-12-12T06:10:01.627Z,-3.83
2022-12-12T06:12:29.684Z,-4.05
2022-12-12T06:14:57.826Z,-3.82
2022-12-12T06:17:29.716Z,-4.00
2022-12-12T06:20:01.783Z,-3.83
2022-12-12T06:22:29.871Z,-3.81
2022-12-12T06:24:58.128Z,-3.78
2022-12-12T06:27:26.304Z,-3.78
2022-12-12T06:29:54.260Z,-3.75
2022-12-12T06:32:22.165Z,-3.78
2022-12-12T06:34:50.633Z,-3.82
2022-12-12T06:37:18.814Z,-3.73
2022-12-12T06:39:47.171Z,-3.60
2022-12-12T06:42:15.536Z,-3.63
2022-12-12T06:44:43.655Z,-3.59
2022-12-12T06:47:11.639Z,-3.53
2022-12-12T06:49:39.600Z,-3.74
2022-12-12T06:52:07.883Z,-3.50
2022-12-12T06:54:36.694Z,-3.33
2022-12-12T06:57:04.805Z,-3.43
2022-12-12T06:59:34.581Z,-3.51
2022-12-12T07:02:02.827Z,-3.50
2022-12-12T07:04:30.915Z,-3.20
2022-12-12T07:06:59.136Z,-3.23
2022-12-12T07:09:28.434Z,-3.14
2022-12-12T07:11:56.922Z,-2.92
2022-12-12T07:14:25.095Z,-2.75
2022-12-12T07:16:53.029Z,-2.54
2022-12-12T07:19:22.753Z,-2.49
2022-12-12T07:21:51.077Z,-2.65
2022-12-12T07:24:19.150Z,-3.05
2022-12-12T07:26:47.508Z,-2.41
2022-12-12T07:29:16.106Z,-2.45
2022-12-12T07:31:43.992Z,-2.41
2022-12-12T07:34:11.983Z,-2.45
2022-12-12T07:36:40.011Z,-2.67
2022-12-12T07:39:08.097Z,-2.37
2022-12-12T07:41:36.104Z,-2.42
2022-12-12T07:44:05.985Z,-2.39
2022-12-12T07:46:33.876Z,-2.66
2022-12-12T07:49:01.958Z,-2.64
2022-12-12T07:51:31.606Z,-2.67
2022-12-12T07:53:59.445Z,-2.45
2022-12-12T07:56:27.347Z,-2.38
2022-12-12T07:58:57.506Z,-2.28
2022-12-12T08:01:28.072Z,-2.55
2022-12-12T08:03:57.268Z,-2.36
2022-12-12T08:06:25.568Z,-2.30
2022-12-12T08:08:54.269Z,-2.15
2022-12-12T08:11:25.794Z,-2.22
2022-12-12T08:13:54.150Z,-2.04
2022-12-12T08:16:28.231Z,-1.84
2022-12-12T08:18:59.313Z,-2.19
2022-12-12T08:21:28.703Z,-1.74
2022-12-12T08:24:02.374Z,-1.53
2022-12-12T08:26:31.341Z,-1.30
2022-12-12T08:28:59.252Z,-1.53
2022-12-12T08:31:28.043Z,-1.25
2022-12-12T08:33:57.246Z,-1.65
2022-12-12T08:36:31.706Z,-1.61
2022-12-12T08:39:05.066Z,-1.32
2022-12-12T08:41:38.231Z,-1.36
2022-12-12T08:44:08.008Z,-1.56
2022-12-12T08:46:35.952Z,-1.38
2022-12-12T08:49:04.231Z,-1.36
2022-12-12T08:51:33.168Z,-1.56
2022-12-12T08:54:01.092Z,-1.97
2022-12-12T08:56:29.185Z,-2.44
2022-12-12T08:58:58.518Z,-1.96
2022-12-12T09:01:28.083Z,-1.91
2022-12-12T09:03:57.652Z,-1.89
2022-12-12T09:06:27.385Z,-1.91
2022-12-12T09:08:59.708Z,-1.58
2022-12-12T09:11:27.836Z,-1.44
2022-12-12T09:13:55.874Z,-1.54
2022-12-12T09:16:26.481Z,-1.61
2022-12-12T09:18:54.674Z,-1.73
2022-12-12T09:21:22.987Z,-1.64
2022-12-12T09:23:51.093Z,-1.53
2022-12-12T09:26:19.849Z,-1.81
2022-12-12T09:28:48.950Z,-1.78
2022-12-12T09:31:16.873Z,-1.66
2022-12-12T09:33:45.706Z,-1.55
2022-12-12T09:36:14.070Z,-1.43
2022-12-12T09:38:42.903Z,-1.54
2022-12-12T09:41:19.611Z,-1.78
2022-12-12T09:44:12.827Z,-1.22
2022-12-12T09:46:55.859Z,-1.26
2022-12-12T09:49:54.271Z,-1.17
2022-12-12T09:52:37.880Z,-0.98
2022-12-12T09:55:36.174Z,-0.95
2022-12-12T09:58:49.207Z,-0.97
2022-12-12T10:01:53.473Z,-1.28
2022-12-12T10:04:52.014Z,-0.98
2022-12-12T10:07:36.725Z,-0.91
2022-12-12T10:10:33.856Z,-1.02
2022-12-12T10:13:05.039Z,-1.08
2022-12-12T10:15:45.926Z,-1.26
2022-12-12T10:18:26.214Z,-0.99
2022-12-12T10:20:59.973Z,-1.10
2022-12-12T10:23:53.772Z,-1.37
2022-12-12T10:26:31.675Z,-1.14
2022-12-12T10:29:21.084Z,-1.13
2022-12-12T10:32:16.971Z,-1.10
2022-12-12T10:34:50.841Z,-1.01
2022-12-12T10:37:41.897Z,-1.10
2022-12-12T10:40:29.847Z,-1.09
2022-12-12T10:43:09.468Z,-0.99
2022-12-12T10:46:13.302Z,-0.95
2022-12-12T10:48:41.923Z,-1.25
2022-12-12T10:51:15.786Z,-0.99
2022-12-12T10:53:45.160Z,-0.88
2022-12-12T10:56:25.111Z,-0.80
2022-12-12T10:58:59.707Z,-1.09
2022-12-12T11:02:07.839Z,-0.84
2022-12-12T11:04:22.228Z,-1.00
2022-12-12T11:06:55.076Z,-0.89
2022-12-12T11:09:27.699Z,-1.00
2022-12-12T11:12:01.579Z,-0.94
2022-12-12T11:14:40.032Z,-0.82
2022-12-12T11:17:31.015Z,-1.12
2022-12-12T11:20:03.839Z,-0.72
2022-12-12T11:22:34.375Z,-0.84
2022-12-12T11:25:02.419Z,-0.78
2022-12-12T11:27:39.768Z,-0.74
2022-12-12T11:30:32.441Z,-1.17
2022-12-12T11:33:01.978Z,-0.70
2022-12-12T11:35:35.278Z,-0.80
2022-12-12T11:38:50.861Z,-0.52
2022-12-12T11:41:19.232Z,-0.54
2022-12-12T11:43:50.614Z,-0.65
2022-12-12T11:46:24.749Z,-0.90
2022-12-12T11:48:52.589Z,-0.54
2022-12-12T11:51:50.051Z,-0.49
2022-12-12T11:54:34.878Z,-0.70
2022-12-12T11:57:39.459Z,-0.82
2022-12-12T12:00:22.431Z,-0.50
2022-12-12T12:03:10.094Z,-0.47
2022-12-12T12:06:08.965Z,-0.40
2022-12-12T12:09:14.559Z,-0.61
2022-12-12T12:12:02.857Z,-0.64
2022-12-12T12:15:28.231Z,-0.64
2022-12-12T12:18:34.604Z,-0.68
2022-12-12T12:21:39.662Z,-0.55
2022-12-12T12:24:14.046Z,-0.47
2022-12-12T12:27:26.155Z,-0.57
2022-12-12T12:30:11.889Z,-0.66
2022-12-12T12:33:13.969Z,-0.54
2022-12-12T12:36:27.713Z,-0.64
2022-12-12T12:39:15.688Z,-0.61
2022-12-12T12:42:29.653Z,-0.57
2022-12-12T12:45:17.629Z,-0.76
2022-12-12T12:48:25.007Z,-0.61
2022-12-12T12:51:23.620Z,-0.63
2022-12-12T12:54:30.508Z,-0.60
2022-12-12T12:57:12.874Z,-0.82
2022-12-12T12:59:55.667Z,-0.64
2022-12-12T13:02:36.197Z,-0.70
2022-12-12T13:05:39.698Z,-0.50
2022-12-12T13:08:24.727Z,-0.67
2022-12-12T13:11:02.912Z,-0.65
2022-12-12T13:13:35.705Z,-0.78
2022-12-12T13:16:18.091Z,-0.97
2022-12-12T13:19:09.186Z,-1.06
2022-12-12T13:22:04.991Z,-1.05
2022-12-12T13:24:59.396Z,-0.70
2022-12-12T13:27:45.820Z,-1.02
2022-12-12T13:30:42.698Z,-0.87
2022-12-12T13:33:41.472Z,-0.77
2022-12-12T13:36:32.506Z,-1.11
2022-12-12T13:39:05.068Z,-0.83
2022-12-12T13:42:02.217Z,-0.87
2022-12-12T13:44:36.009Z,-0.91
2022-12-12T13:47:24.638Z,-0.93
2022-12-12T13:50:11.030Z,-0.95
2022-12-12T13:52:43.714Z,-1.20
2022-12-12T13:55:11.580Z,-0.94
2022-12-12T13:58:19.281Z,-0.96
2022-12-12T14:00:47.702Z,-1.13
2022-12-12T14:03:30.043Z,-0.97
2022-12-12T14:06:12.017Z,-1.06
2022-12-12T14:08:51.817Z,-0.99
2022-12-12T14:11:36.612Z,-1.04
2022-12-12T14:14:18.331Z,-1.00
2022-12-12T14:16:54.735Z,-1.06
2022-12-12T14:19:35.136Z,-1.03
2022-12-12T14:22:04.638Z,-1.27
2022-12-12T14:24:35.439Z,-1.05
2022-12-12T14:27:06.727Z,-1.31
2022-12-12T14:29:45.684Z,-1.44
2022-12-12T14:32:13.874Z,-1.04
2022-12-12T14:34:57.049Z,-1.05
2022-12-12T14:38:10.452Z,-1.05
2022-12-12T14:40:45.654Z,-1.10
2022-12-12T14:43:23.486Z,-1.08
2022-12-12T14:45:51.492Z,-1.06
2022-12-12T14:48:25.233Z,-1.05
2022-12-12T14:51:13.468Z,-1.08
2022-12-12T14:53:54.365Z,-1.08
2022-12-12T14:56:39.159Z,-1.10
2022-12-12T14:59:20.688Z,-1.06
2022-12-12T15:01:53.980Z,-1.32
2022-12-12T15:04:26.568Z,-1.13
2022-12-12T15:06:58.235Z,-1.17
2022-12-12T15:09:31.825Z,-1.19
2022-12-12T15:12:20.143Z,-1.27
2022-12-12T15:14:49.350Z,-1.09
2022-12-12T15:17:37.909Z,-1.11
2022-12-12T15:20:15.869Z,-1.15
2022-12-12T15:22:58.137Z,-1.89
2022-12-12T15:25:43.399Z,-1.14
2022-12-12T15:28:20.342Z,-1.39
2022-12-12T15:30:52.763Z,-1.39
2022-12-12T15:33:24.548Z,-1.28
2022-12-12T15:36:02.123Z,-1.14
2022-12-12T15:38:31.849Z,-1.15
2022-12-12T15:41:05.416Z,-1.10
2022-12-12T15:43:37.466Z,-1.10
2022-12-12T15:46:16.075Z,-1.39
2022-12-12T15:48:45.972Z,-1.35
2022-12-12T15:51:21.101Z,-1.70
2022-12-12T15:53:58.485Z,-1.35
2022-12-12T15:56:29.497Z,-1.28
2022-12-12T15:59:09.258Z,-1.17
2022-12-12T16:01:38.409Z,-1.17
2022-12-12T16:04:09.873Z,-1.12
2022-12-12T16:06:42.186Z,-1.04
2022-12-12T16:09:18.942Z,-1.07
2022-12-12T16:11:51.879Z,-1.00
2022-12-12T16:14:26.155Z,-1.00
2022-12-12T16:17:24.379Z,-1.28
2022-12-12T16:20:13.861Z,-1.29
2022-12-12T16:22:44.883Z,-1.10
2022-12-12T16:25:19.374Z,-1.00
2022-12-12T16:28:08.831Z,-1.01
2022-12-12T16:30:39.604Z,-1.01
2022-12-12T16:33:30.072Z,-1.04
2022-12-12T16:36:01.638Z,-1.09
2022-12-12T16:38:31.221Z,-1.30
2022-12-12T16:41:04.054Z,-1.26
2022-12-12T16:43:32.863Z,-1.31
2022-12-12T16:46:01.298Z,-1.17
2022-12-12T16:48:40.534Z,-1.33
2022-12-12T16:51:15.555Z,-1.12
2022-12-12T16:53:43.785Z,-1.11
2022-12-12T16:56:12.796Z,-1.19
2022-12-12T16:58:40.873Z,-1.10
2022-12-12T17:01:09.038Z,-1.29
2022-12-12T17:03:37.742Z,-1.12
2022-12-12T17:06:06.223Z,-1.09
2022-12-12T17:08:35.203Z,-1.35
2022-12-12T17:11:09.595Z,-1.10
2022-12-12T17:13:51.344Z,-1.05
2022-12-12T17:16:25.857Z,-1.00
2022-12-12T17:18:56.168Z,-1.07
2022-12-12T17:21:26.443Z,-1.01
2022-12-12T17:23:55.869Z,-0.97
2022-12-12T17:26:25.124Z,-1.07
2022-12-12T17:28:54.737Z,-0.95
2022-12-12T17:31:23.671Z,-0.96
2022-12-12T17:33:52.070Z,-0.97
2022-12-12T17:36:21.989Z,-1.02
2022-12-12T17:38:50.874Z,-1.13
2022-12-12T17:41:23.903Z,-0.88
2022-12-12T17:43:56.929Z,-0.87
2022-12-12T17:46:28.865Z,-1.07
2022-12-12T17:48:59.079Z,-0.88
2022-12-12T17:51:27.536Z,-0.86
2022-12-12T17:53:56.123Z,-0.86
2022-12-12T17:56:25.877Z,-0.87
2022-12-12T17:58:57.296Z,-0.77
2022-12-12T18:01:31.831Z,-0.98
2022-12-12T18:04:01.564Z,-0.76
2022-12-12T18:06:35.104Z,-0.77
2022-12-12T18:09:04.731Z,-0.76
2022-12-12T18:11:35.855Z,-0.78
2022-12-12T18:14:07.533Z,-0.78
2022-12-12T18:16:37.155Z,-0.78
2022-12-12T18:19:05.366Z,-0.74
2022-12-12T18:24:25.863Z,-0.99
2022-12-12T18:26:57.100Z,-0.78
2022-12-12T18:29:27.103Z,-0.80
2022-12-12T18:31:59.017Z,-0.73
2022-12-12T18:34:27.253Z,-0.93
2022-12-12T18:36:55.775Z,-0.75
2022-12-12T18:39:26.645Z,-0.89
2022-12-12T18:41:54.994Z,-0.86
2022-12-12T18:44:24.217Z,-0.68
2022-12-12T18:46:52.328Z,-0.72
2022-12-12T18:49:20.618Z,-0.68
2022-12-12T18:51:49.356Z,-0.65
2022-12-12T18:54:17.616Z,-1.01
2022-12-12T18:56:47.375Z,-0.65
2022-12-12T18:59:16.776Z,-0.59
2022-12-12T19:01:45.404Z,-0.60
2022-12-12T19:04:20.926Z,-0.62
2022-12-12T19:06:53.128Z,-0.59
2022-12-12T19:09:22.339Z,-0.61
2022-12-12T19:11:54.298Z,-0.93
2022-12-12T19:14:35.670Z,-0.54
2022-12-12T19:17:08.826Z,-0.87
2022-12-12T19:19:37.161Z,-0.84
2022-12-12T19:22:24.713Z,-0.59
2022-12-12T19:24:53.572Z,-0.52
2022-12-12T19:27:21.785Z,-0.72
2022-12-12T19:29:49.777Z,-0.49
2022-12-12T19:32:17.835Z,-0.50
2022-12-12T19:34:45.835Z,-0.50
2022-12-12T19:37:13.713Z,-0.52
2022-12-12T19:39:43.309Z,-0.51
2022-12-12T19:42:11.274Z,-0.48
2022-12-12T19:44:43.551Z,-0.48
2022-12-12T19:47:13.552Z,-0.47
2022-12-12T19:49:41.470Z,-0.68
2022-12-12T19:52:14.008Z,-0.50
2022-12-12T19:54:43.231Z,-0.46
2022-12-12T19:57:11.227Z,-0.56
2022-12-12T19:59:39.281Z,-0.40
2022-12-12T20:02:08.000Z,-0.59
2022-12-12T20:04:36.058Z,-0.40
2022-12-12T20:07:04.014Z,-0.62
2022-12-12T20:09:35.651Z,-0.57
2022-12-12T20:12:04.635Z,-0.32
2022-12-12T20:14:34.997Z,-0.62
2022-12-12T20:17:03.762Z,-0.37
2022-12-12T20:19:32.252Z,-0.61
2022-12-12T20:22:02.236Z,-0.34
2022-12-12T20:24:33.567Z,-0.45
2022-12-12T20:27:05.769Z,-0.39
2022-12-12T20:29:33.972Z,-0.57
2022-12-12T20:32:03.525Z,-0.37
2022-12-12T20:34:31.448Z,-0.36
2022-12-12T20:36:59.749Z,-0.35
2022-12-12T20:39:27.871Z,-0.31
2022-12-12T20:41:57.637Z,-0.31
2022-12-12T20:44:26.266Z,-0.34
2022-12-12T20:46:58.828Z,-0.27
2022-12-12T20:49:29.041Z,-0.39
2022-12-12T20:51:58.810Z,-0.28
2022-12-12T20:54:29.725Z,-0.46
2022-12-12T20:56:59.207Z,-0.34
2022-12-12T20:59:28.020Z,-0.25
2022-12-12T21:01:56.176Z,-1.02
2022-12-12T21:04:24.490Z,-0.23
2022-12-12T21:06:52.498Z,-0.18
2022-12-12T21:09:25.469Z,-0.22
2022-12-12T21:11:57.118Z,-0.26
2022-12-12T21:14:28.281Z,-0.31
2022-12-12T21:16:57.002Z,-0.27
2022-12-12T21:19:25.017Z,-0.24
2022-12-12T21:21:53.256Z,-0.22
2022-12-12T21:24:21.948Z,-0.20
2022-12-12T21:26:50.715Z,-0.44
2022-12-12T21:29:18.727Z,-0.47
2022-12-12T21:31:51.569Z,-0.28
2022-12-12T21:34:22.380Z,-0.22
2022-12-12T21:36:52.859Z,-0.18
2022-12-12T21:39:23.407Z,-0.21
2022-12-12T21:41:51.669Z,-0.34
2022-12-12T21:44:21.227Z,-0.16
2022-12-12T21:46:49.344Z,-0.16
2022-12-12T21:49:20.385Z,-0.42
2022-12-12T21:51:48.735Z,-0.18
2022-12-12T21:54:17.031Z,-0.40
2022-12-12T21:56:45.976Z,-0.41
2022-12-12T21:59:15.385Z,-0.22
2022-12-12T22:01:44.467Z,-0.22
2022-12-12T22:04:13.722Z,-0.24
2022-12-12T22:06:43.928Z,-0.35
2022-12-12T22:09:13.017Z,-0.20
2022-12-12T22:11:49.190Z,-0.21
2022-12-12T22:14:21.967Z,-0.42
2022-12-12T22:16:50.086Z,-0.25
2022-12-12T22:19:18.677Z,-0.27
2022-12-12T22:21:50.390Z,-0.29
2022-12-12T22:24:18.241Z,-0.53
2022-12-12T22:26:49.798Z,-0.33
2022-12-12T22:29:20.692Z,-0.30
2022-12-12T22:31:50.358Z,-0.28
2022-12-12T22:34:24.584Z,-0.27
2022-12-12T22:36:55.599Z,-0.32
2022-12-12T22:39:28.072Z,-0.45
2022-12-12T22:41:57.003Z,-0.31
2022-12-12T22:44:26.310Z,-0.38
2022-12-12T22:46:55.841Z,-0.38
2022-12-12T22:49:26.909Z,-0.56
2022-12-12T22:51:57.897Z,-0.33
2022-12-12T22:54:27.065Z,-0.32
2022-12-12T22:56:56.904Z,-0.58
2022-12-12T22:59:25.519Z,-0.33
2022-12-12T23:01:53.662Z,-0.36
2022-12-12T23:04:22.171Z,-0.41
2022-12-12T23:06:50.458Z,-0.29
2022-12-12T23:09:23.173Z,-0.33
2022-12-12T23:11:53.470Z,-0.33
2022-12-12T23:14:23.854Z,-0.34
2022-12-12T23:16:52.676Z,-0.42
2022-12-12T23:19:25.988Z,-0.37
2022-12-12T23:21:54.976Z,-0.38
2022-12-12T23:24:24.585Z,-0.51
2022-12-12T23:26:52.499Z,-0.38
2022-12-12T23:29:21.248Z,-0.39
2022-12-12T23:31:49.759Z,-0.66
2022-12-12T23:34:24.823Z,-0.35
2022-12-12T23:36:54.765Z,-0.61
2022-12-12T23:39:24.642Z,-0.63
2022-12-12T23:41:53.543Z,-0.53
2022-12-12T23:44:23.650Z,-0.40
2022-12-12T23:46:52.022Z,-0.40
2022-12-12T23:49:26.048Z,-0.59
2022-12-12T23:51:59.401Z,-0.33
2022-12-12T23:54:35.453Z,-0.31
2022-12-12T23:57:03.885Z,-0.40
2022-12-12T23:59:32.067Z,-0.38
